createdAt,value
2023-01-10T00:00:52.622Z,23.40
2023-01-10T00:03:20.991Z,23.00
2023-01-10T00:05:49.300Z,22.60
2023-01-10T00:08:18.263Z,22.80
2023-01-10T00:10:46.579Z,23.00
2023-01-10T00:13:16.971Z,23.20
2023-01-10T00:15:46.028Z,23.30
2023-01-10T00:18:14.598Z,23.40
2023-01-10T00:20:42.908Z,23.40
2023-01-10T00:23:11.177Z,22.90
2023-01-10T00:25:39.685Z,22.50
2023-01-10T00:28:08.184Z,22.70
2023-01-10T00:30:37.785Z,23.00
2023-01-10T00:33:06.374Z,23.10
2023-01-10T00:35:35.299Z,23.30
2023-01-10T00:38:03.401Z,23.40
2023-01-10T00:40:32.388Z,23.10
2023-01-10T00:43:03.334Z,22.60
2023-01-10T00:45:31.502Z,22.60
2023-01-10T00:47:59.853Z,22.80
2023-01-10T00:50:28.126Z,23.10
2023-01-10T00:52:56.223Z,23.30
2023-01-10T00:55:24.641Z,23.40
2023-01-10T00:57:53.285Z,23.10
2023-01-10T01:00:21.545Z,22.60
2023-01-10T01:02:50.106Z,22.60
2023-01-10T01:05:19.454Z,22.90
2023-01-10T01:07:52.337Z,23.20
2023-01-10T01:10:21.016Z,23.40
2023-01-10T01:12:48.826Z,23.40
2023-01-10T01:15:17.070Z,23.00
2023-01-10T01:17:45.368Z,22.60
2023-01-10T01:20:14.044Z,22.70
2023-01-10T01:22:42.385Z,23.00
2023-01-10T01:25:10.743Z,23.20
2023-01-10T01:27:39.063Z,23.40
2023-01-10T01:30:08.551Z,23.40
2023-01-10T01:32:36.944Z,22.90
2023-01-10T01:35:06.975Z,22.60
2023-01-10T01:37:35.276Z,22.70
2023-01-10T01:40:03.786Z,23.10
2023-01-10T01:42:34.556Z,23.20
2023-01-10T01:45:08.845Z,23.40
2023-01-10T01:47:45.473Z,23.20
2023-01-10T01:50:25.612Z,22.70
2023-01-10T01:52:57.496Z,22.60
2023-01-10T01:55:27.970Z,22.90
2023-01-10T01:57:59.750Z,23.20
2023-01-10T02:00:28.001Z,23.40
2023-01-10T02:03:03.058Z,23.30
2023-01-10T02:05:34.711Z,22.80
2023-01-10T02:08:03.428Z,22.70
2023-01-10T02:10:46.949Z,22.90
2023-01-10T02:13:18.817Z,23.20
2023-01-10T02:15:47.082Z,23.40
2023-01-10T02:18:15.711Z,23.50
2023-01-10T02:20:54.851Z,23.20
2023-01-10T02:23:26.192Z,22.80
2023-01-10T02:26:18.771Z,22.70
2023-01-10T02:29:22.289Z,23.00
2023-01-10T02:32:14.542Z,23.30
2023-01-10T02:34:57.954Z,23.50
2023-01-10T02:37:47.885Z,23.40
2023-01-10T02:40:52.072Z,22.90
2023-01-10T02:43:28.785Z,22.70
2023-01-10T02:46:22.087Z,23.00
2023-01-10T02:48:50.288Z,23.30
2023-01-10T02:51:27.510Z,23.50
2023-01-10T02:54:01.486Z,23.50
2023-01-10T02:56:41.760Z,23.20
2023-01-10T02:59:28.438Z,22.70
2023-01-10T03:02:34.307Z,22.90
2023-01-10T03:05:33.598Z,23.20
2023-01-10T03:08:04.809Z,23.40
2023-01-10T03:10:59.654Z,23.60
2023-01-10T03:13:45.205Z,23.20
2023-01-10T03:16:18.819Z,22.70
2023-01-10T03:18:58.707Z,22.90
2023-01-10T03:21:29.026Z,23.20
2023-01-10T03:24:06.430Z,23.40
2023-01-10T03:26:42.830Z,23.60
2023-01-10T03:29:13.672Z,23.30
2023-01-10T03:31:49.650Z,22.80
2023-01-10T03:34:18.413Z,22.80
2023-01-10T03:37:00.736Z,23.00
2023-01-10T03:39:56.724Z,23.30
2023-01-10T03:42:34.872Z,23.50
2023-01-10T03:45:08.723Z,23.60
2023-01-10T03:47:42.873Z,23.20
2023-01-10T03:50:24.769Z,22.70
2023-01-10T03:52:53.197Z,22.90
2023-01-10T03:55:30.091Z,23.20
2023-01-10T03:57:58.424Z,23.40
2023-01-10T04:00:26.584Z,23.50
2023-01-10T04:02:54.888Z,23.50
2023-01-10T04:05:23.265Z,23.10
2023-01-10T04:07:51.327Z,22.80
2023-01-10T04:10:19.674Z,23.00
2023-01-10T04:12:47.921Z,23.20
2023-01-10T04:15:16.263Z,23.40
2023-01-10T04:17:44.437Z,23.60
2023-01-10T04:20:12.937Z,23.40
2023-01-10T04:22:41.688Z,23.00
2023-01-10T04:25:10.132Z,22.80
2023-01-10T04:27:38.529Z,23.00
2023-01-10T04:30:07.471Z,23.20
2023-01-10T04:32:35.978Z,23.40
2023-01-10T04:35:03.904Z,23.60
2023-01-10T04:37:32.099Z,23.40
2023-01-10T04:40:00.408Z,22.90
2023-01-10T04:42:28.705Z,22.70
2023-01-10T04:44:56.900Z,22.90
2023-01-10T04:47:25.135Z,23.20
2023-01-10T04:49:53.356Z,23.40
2023-01-10T04:52:21.434Z,23.50
2023-01-10T04:54:49.738Z,23.40
2023-01-10T04:57:18.147Z,23.10
2023-01-10T04:59:46.358Z,22.80
2023-01-10T05:02:14.633Z,22.90
2023-01-10T05:04:43.030Z,23.20
2023-01-10T05:07:11.226Z,23.40
2023-01-10T05:09:39.567Z,23.50
2023-01-10T05:12:07.757Z,23.50
2023-01-10T05:14:35.935Z,23.00
2023-01-10T05:17:04.156Z,22.70
2023-01-10T05:19:32.455Z,22.90
2023-01-10T05:22:00.749Z,23.20
2023-01-10T05:24:28.963Z,23.30
2023-01-10T05:26:57.129Z,23.50
2023-01-10T05:29:25.331Z,23.60
2023-01-10T05:31:53.682Z,23.30
2023-01-10T05:34:22.300Z,22.80
2023-01-10T05:36:50.442Z,22.80
2023-01-10T05:39:18.885Z,23.10
2023-01-10T05:41:47.101Z,23.30
2023-01-10T05:44:15.379Z,23.40
2023-01-10T05:46:43.503Z,23.60
2023-01-10T05:49:11.801Z,23.30
2023-01-10T05:51:40.266Z,22.90
2023-01-10T05:54:08.991Z,22.80
2023-01-10T05:56:36.799Z,23.00
2023-01-10T05:59:08.029Z,23.20
2023-01-10T06:01:42.323Z,23.40
2023-01-10T06:04:10.561Z,23.50
2023-01-10T06:06:38.796Z,23.50
2023-01-10T06:09:07.015Z,23.00
2023-01-10T06:11:35.348Z,22.70
2023-01-10T06:14:04.052Z,22.90
2023-01-10T06:16:31.909Z,23.10
2023-01-10T06:19:00.208Z,23.30
2023-01-10T06:21:28.422Z,23.50
2023-01-10T06:23:56.714Z,23.60
2023-01-10T06:26:25.034Z,23.20
2023-01-10T06:28:53.196Z,22.70
2023-01-10T06:31:22.687Z,22.70
2023-01-10T06:33:54.088Z,23.00
2023-01-10T06:36:22.317Z,23.30
2023-01-10T06:38:50.630Z,23.40
2023-01-10T06:41:18.895Z,23.50
2023-01-10T06:43:48.356Z,23.30
2023-01-10T06:46:19.795Z,22.80
2023-01-10T06:48:48.936Z,22.80
2023-01-10T06:51:20.050Z,23.00
2023-01-10T06:53:49.069Z,23.20
2023-01-10T06:56:17.016Z,23.40
2023-01-10T06:58:45.121Z,23.50
2023-01-10T07:01:19.270Z,23.40
2023-01-10T07:03:47.621Z,22.90
2023-01-10T07:06:16.531Z,22.70
2023-01-10T07:08:45.676Z,22.90
2023-01-10T07:11:15.875Z,23.10
2023-01-10T07:13:44.155Z,23.30
2023-01-10T07:16:15.197Z,23.40
2023-01-10T07:18:44.124Z,23.40
2023-01-10T07:21:12.079Z,23.10
2023-01-10T07:23:40.832Z,22.70
2023-01-10T07:26:11.852Z,22.80
2023-01-10T07:28:40.048Z,23.10
2023-01-10T07:31:08.393Z,23.20
2023-01-10T07:33:36.701Z,23.40
2023-01-10T07:36:05.252Z,23.50
2023-01-10T07:38:33.447Z,23.40
2023-01-10T07:41:05.505Z,23.00
2023-01-10T07:43:35.382Z,22.70
2023-01-10T07:46:08.048Z,22.80
2023-01-10T07:48:36.918Z,23.10
2023-01-10T07:51:05.614Z,23.20
2023-01-10T07:53:33.936Z,23.40
2023-01-10T07:56:03.796Z,23.50
2023-01-10T07:58:32.206Z,23.30
2023-01-10T08:01:02.391Z,22.80
2023-01-10T08:03:31.645Z,22.70
2023-01-10T08:06:04.957Z,22.90
2023-01-10T08:08:34.358Z,23.10
2023-01-10T08:11:03.166Z,23.30
2023-01-10T08:13:32.901Z,23.40
2023-01-10T08:16:04.704Z,23.50
2023-01-10T08:18:33.159Z,23.20
2023-01-10T08:21:01.408Z,22.70
2023-01-10T08:23:29.553Z,22.70
2023-01-10T08:25:59.733Z,22.90
2023-01-10T08:28:28.444Z,23.10
2023-01-10T08:30:56.337Z,23.30
2023-01-10T08:33:25.721Z,23.40
2023-01-10T08:35:53.875Z,23.30
2023-01-10T08:38:22.119Z,22.90
2023-01-10T08:40:50.450Z,22.70
2023-01-10T08:43:18.608Z,22.80
2023-01-10T08:45:47.213Z,23.10
2023-01-10T08:48:15.438Z,23.30
2023-01-10T08:50:43.764Z,23.40
2023-01-10T08:53:12.089Z,23.30
2023-01-10T08:55:40.368Z,22.90
2023-01-10T08:58:09.872Z,22.60
2023-01-10T09:00:38.138Z,22.80
2023-01-10T09:03:09.044Z,23.00
2023-01-10T09:05:37.635Z,23.20
2023-01-10T09:08:06.114Z,23.40
2023-01-10T09:10:34.408Z,23.40
2023-01-10T09:13:02.659Z,23.10
2023-01-10T09:15:33.802Z,22.70
2023-01-10T09:18:04.795Z,22.70
2023-01-10T09:20:35.686Z,23.00
2023-01-10T09:23:14.710Z,23.20
2023-01-10T09:25:42.988Z,23.30
2023-01-10T09:28:11.201Z,23.40
2023-01-10T09:30:39.634Z,23.10
2023-01-10T09:33:08.457Z,22.80
2023-01-10T09:35:38.750Z,22.60
2023-01-10T09:38:10.969Z,22.90
2023-01-10T09:44:11.880Z,23.30
2023-01-10T09:46:52.435Z,23.40
2023-01-10T09:49:39.361Z,23.10
2023-01-10T09:52:32.648Z,22.70
2023-01-10T09:55:26.270Z,22.60
2023-01-10T09:57:58.192Z,22.90
2023-01-10T10:00:40.114Z,23.10
2023-01-10T10:03:35.792Z,23.30
2023-01-10T10:06:12.113Z,23.40
2023-01-10T10:08:47.393Z,23.00
2023-01-10T10:11:27.941Z,22.60
2023-01-10T10:14:15.718Z,22.70
2023-01-10T10:16:59.425Z,22.90
2023-01-10T10:19:56.652Z,23.20
2023-01-10T10:22:57.633Z,23.30
2023-01-10T10:25:56.514Z,23.30
2023-01-10T10:28:55.064Z,22.80
2023-01-10T10:31:34.248Z,22.60
2023-01-10T10:34:30.449Z,22.90
2023-01-10T10:37:05.124Z,23.10
2023-01-10T10:39:59.336Z,23.20
2023-01-10T10:42:36.630Z,23.40
2023-01-10T10:45:41.924Z,23.10
2023-01-10T10:48:28.011Z,22.70
2023-01-10T10:51:26.855Z,22.80
2023-01-10T10:53:57.281Z,23.00
2023-01-10T10:56:28.173Z,23.20
2023-01-10T10:58:59.567Z,23.40
2023-01-10T11:01:28.069Z,23.20
2023-01-10T11:04:01.013Z,22.80
2023-01-10T11:06:33.999Z,22.50
2023-01-10T11:09:05.810Z,22.80
2023-01-10T11:11:38.531Z,23.00
2023-01-10T11:14:09.323Z,23.20
2023-01-10T11:16:39.213Z,23.30
2023-01-10T11:19:28.084Z,23.10
2023-01-10T11:22:06.342Z,22.70
2023-01-10T11:24:42.406Z,22.60
2023-01-10T11:27:26.239Z,22.90
2023-01-10T11:30:21.073Z,23.10
2023-01-10T11:33:07.508Z,23.30
2023-01-10T11:35:38.631Z,23.10
2023-01-10T11:38:20.574Z,22.70
2023-01-10T11:41:02.555Z,22.50
2023-01-10T11:43:38.311Z,22.70
2023-01-10T11:46:15.612Z,23.00
2023-01-10T11:49:06.325Z,23.20
2023-01-10T11:51:41.527Z,23.30
2023-01-10T11:54:19.967Z,23.10
2023-01-10T11:57:16.746Z,22.60
2023-01-10T11:59:55.107Z,22.70
2023-01-10T12:02:49.557Z,23.00
2023-01-10T12:05:22.897Z,23.20
2023-01-10T12:07:58.501Z,23.40
2023-01-10T12:10:29.342Z,23.10
2023-01-10T12:13:19.330Z,22.80
2023-01-10T12:15:47.720Z,22.60
2023-01-10T12:18:16.341Z,22.80
2023-01-10T12:20:52.554Z,23.10
2023-01-10T12:23:25.190Z,23.30
2023-01-10T12:26:07.106Z,23.40
2023-01-10T12:28:46.386Z,23.10
2023-01-10T12:31:16.227Z,22.70
2023-01-10T12:34:01.949Z,22.60
2023-01-10T12:36:32.900Z,22.80
2023-01-10T12:39:13.143Z,23.10
2023-01-10T12:42:10.729Z,23.30
2023-01-10T12:44:43.113Z,23.30
2023-01-10T12:47:40.488Z,22.90
2023-01-10T12:50:21.590Z,22.60
2023-01-10T12:53:01.141Z,22.70
2023-01-10T12:55:36.794Z,23.00
2023-01-10T12:58:06.043Z,23.20
2023-01-10T13:00:48.335Z,23.30
2023-01-10T13:03:21.485Z,23.10
2023-01-10T13:05:50.762Z,22.70
2023-01-10T13:08:28.620Z,22.60
2023-01-10T13:11:00.717Z,22.80
2023-01-10T13:13:37.700Z,23.10
2023-01-10T13:16:27.262Z,23.30
2023-01-10T13:19:18.807Z,23.30
2023-01-10T13:21:47.204Z,22.90
2023-01-10T13:24:25.855Z,22.70
2023-01-10T13:27:02.436Z,22.60
2023-01-10T13:29:52.232Z,22.90
2023-01-10T13:32:24.896Z,23.20
2023-01-10T13:34:53.619Z,23.40
2023-01-10T13:37:30.943Z,23.10
2023-01-10T13:40:01.836Z,22.80
2023-01-10T13:42:35.341Z,22.60
2023-01-10T13:45:03.659Z,22.80
2023-01-10T13:47:41.052Z,23.10
2023-01-10T13:50:24.806Z,23.40
2023-01-10T13:53:04.812Z,23.20
2023-01-10T13:55:39.953Z,22.80
2023-01-10T13:58:17.481Z,22.60
2023-01-10T14:00:53.971Z,22.80
2023-01-10T14:03:45.372Z,23.10
2023-01-10T14:06:28.885Z,23.30
2023-01-10T14:09:00.001Z,23.30
2023-01-10T14:11:53.003Z,23.00
2023-01-10T14:14:21.270Z,22.60
2023-01-10T14:16:52.825Z,22.70
2023-01-10T14:19:33.390Z,23.00
2023-01-10T14:22:03.733Z,23.30
2023-01-10T14:24:53.187Z,23.30
2023-01-10T14:27:22.379Z,23.00
2023-01-10T14:30:02.226Z,22.80
2023-01-10T14:32:36.784Z,22.70
2023-01-10T14:35:16.010Z,23.00
2023-01-10T14:37:48.494Z,23.20
2023-01-10T14:40:37.660Z,23.40
2023-01-10T14:43:18.498Z,23.10
2023-01-10T14:46:01.472Z,22.80
2023-01-10T14:48:36.054Z,22.60
2023-01-10T14:51:25.332Z,22.90
2023-01-10T14:54:01.988Z,23.20
2023-01-10T14:56:52.082Z,23.40
2023-01-10T14:59:24.707Z,23.10
2023-01-10T15:01:57.172Z,22.80
2023-01-10T15:04:28.634Z,22.60
2023-01-10T15:07:02.453Z,22.80
2023-01-10T15:09:32.592Z,23.10
2023-01-10T15:12:04.523Z,23.40
2023-01-10T15:14:33.973Z,23.30
2023-01-10T15:17:04.846Z,23.10
2023-01-10T15:19:37.627Z,22.80
2023-01-10T15:22:32.179Z,22.60
2023-01-10T15:25:01.841Z,22.90
2023-01-10T15:27:31.213Z,23.20
2023-01-10T15:29:59.920Z,23.50
2023-01-10T15:32:30.077Z,23.30
2023-01-10T15:34:58.940Z,23.00
2023-01-10T15:37:30.134Z,22.80
2023-01-10T15:39:58.590Z,22.60
2023-01-10T15:42:27.848Z,22.60
2023-01-10T15:44:56.257Z,22.80
2023-01-10T15:47:54.463Z,23.20
2023-01-10T15:50:34.504Z,23.40
2023-01-10T15:53:06.303Z,23.30
2023-01-10T15:55:41.442Z,22.90
2023-01-10T15:58:37.057Z,22.70
2023-01-10T16:01:05.731Z,22.60
2023-01-10T16:03:55.448Z,22.70
2023-01-10T16:06:35.676Z,22.60
2023-01-10T16:09:09.602Z,22.50
2023-01-10T16:11:46.925Z,22.50
2023-01-10T16:14:15.424Z,22.40
2023-01-10T16:16:43.743Z,22.40
2023-01-10T16:19:14.501Z,22.40
2023-01-10T16:21:45.927Z,22.70
2023-01-10T16:24:23.984Z,23.00
2023-01-10T16:26:52.754Z,23.30
2023-01-10T16:29:21.022Z,23.30
2023-01-10T16:31:52.514Z,23.00
2023-01-10T16:34:21.517Z,22.70
2023-01-10T16:36:49.798Z,22.50
2023-01-10T16:39:23.244Z,22.80
2023-01-10T16:41:51.475Z,23.10
2023-01-10T16:44:19.621Z,23.40
2023-01-10T16:46:47.983Z,23.40
2023-01-10T16:49:16.237Z,23.10
2023-01-10T16:51:44.645Z,22.80
2023-01-10T16:54:17.853Z,22.60
2023-01-10T16:56:46.804Z,22.50
2023-01-10T16:59:16.408Z,22.50
2023-01-10T17:01:59.181Z,22.60
2023-01-10T17:04:31.200Z,22.90
2023-01-10T17:06:59.731Z,23.30
2023-01-10T17:09:30.328Z,23.40
2023-01-10T17:12:11.559Z,23.10
2023-01-10T17:14:40.095Z,22.80
2023-01-10T17:17:08.299Z,22.60
2023-01-10T17:19:36.709Z,22.50
2023-01-10T17:22:05.126Z,22.70
2023-01-10T17:24:33.325Z,23.00
2023-01-10T17:27:01.629Z,23.30
2023-01-10T17:29:30.979Z,23.40
2023-01-10T17:31:59.286Z,23.10
2023-01-10T17:34:27.699Z,22.80
2023-01-10T17:36:55.993Z,22.70
2023-01-10T17:39:24.462Z,22.60
2023-01-10T17:41:52.841Z,22.90
2023-01-10T17:44:20.997Z,23.20
2023-01-10T17:46:49.194Z,23.40
2023-01-10T17:49:17.687Z,23.20
2023-01-10T17:51:45.910Z,22.90
2023-01-10T17:54:14.188Z,22.70
2023-01-10T17:56:42.921Z,22.80
2023-01-10T17:59:10.993Z,23.20
2023-01-10T18:01:39.392Z,23.40
2023-01-10T18:04:08.013Z,23.40
2023-01-10T18:06:36.407Z,23.20
2023-01-10T18:09:04.983Z,23.00
2023-01-10T18:11:33.320Z,23.00
2023-01-10T18:14:01.636Z,23.00
2023-01-10T18:16:30.056Z,23.00
2023-01-10T18:18:58.391Z,22.90
2023-01-10T18:21:26.632Z,23.00
2023-01-10T18:23:57.810Z,22.90
2023-01-10T18:26:26.553Z,22.90
2023-01-10T18:28:54.739Z,23.00
2023-01-10T18:31:23.158Z,23.30
2023-01-10T18:33:51.822Z,23.70
2023-01-10T18:36:22.547Z,23.70
2023-01-10T18:38:51.734Z,23.50
2023-01-10T18:41:21.415Z,23.30
2023-01-10T18:43:49.847Z,23.20
2023-01-10T18:46:21.231Z,23.20
2023-01-10T18:48:52.741Z,23.30
2023-01-10T18:51:21.093Z,23.70
2023-01-10T18:53:49.432Z,24.00
2023-01-10T18:56:17.798Z,24.00
2023-01-10T18:58:46.059Z,23.70
2023-01-10T19:01:19.689Z,23.40
2023-01-10T19:03:48.499Z,23.40
2023-01-10T19:06:19.790Z,23.20
2023-01-10T19:08:48.289Z,22.90
2023-01-10T19:11:17.033Z,22.80
2023-01-10T19:13:45.797Z,22.70
2023-01-10T19:16:24.264Z,22.60
2023-01-10T19:18:57.687Z,22.60
2023-01-10T19:21:28.192Z,22.90
2023-01-10T19:23:57.384Z,23.20
2023-01-10T19:26:26.171Z,23.40
2023-01-10T19:28:54.932Z,23.40
2023-01-10T19:31:24.410Z,23.00
2023-01-10T19:33:53.151Z,22.70
2023-01-10T19:36:22.153Z,22.80
2023-01-10T19:38:55.310Z,23.10
2023-01-10T19:41:24.571Z,23.40
2023-01-10T19:44:01.454Z,23.50
2023-01-10T19:46:31.061Z,23.20
2023-01-10T19:49:00.474Z,22.90
2023-01-10T19:51:28.848Z,22.80
2023-01-10T19:53:56.925Z,23.10
2023-01-10T19:56:25.314Z,23.40
2023-01-10T19:58:55.283Z,23.60
2023-01-10T20:01:26.267Z,23.40
2023-01-10T20:03:58.049Z,23.10
2023-01-10T20:06:27.713Z,22.80
2023-01-10T20:08:56.951Z,22.90
2023-01-10T20:11:27.297Z,23.30
2023-01-10T20:13:55.753Z,23.50
2023-01-10T20:16:24.712Z,23.40
2023-01-10T20:18:53.143Z,23.10
2023-01-10T20:21:21.720Z,22.80
2023-01-10T20:23:50.029Z,22.90
2023-01-10T20:26:25.680Z,23.20
2023-01-10T20:28:54.843Z,23.50
2023-01-10T20:31:24.895Z,23.50
2023-01-10T20:33:53.426Z,23.20
2023-01-10T20:36:23.485Z,23.00
2023-01-10T20:38:52.314Z,22.80
2023-01-10T20:41:24.592Z,22.70
2023-01-10T20:43:54.103Z,22.70
2023-01-10T20:46:24.800Z,23.00
2023-01-10T20:48:54.917Z,23.30
2023-01-10T20:51:26.533Z,23.50
2023-01-10T20:53:55.141Z,23.20
2023-01-10T20:56:25.916Z,22.90
2023-01-10T20:58:55.202Z,22.80
2023-01-10T21:01:34.012Z,22.90
2023-01-10T21:04:04.436Z,23.20
2023-01-10T21:06:36.686Z,23.50
2023-01-10T21:09:06.163Z,23.30
2023-01-10T21:11:47.555Z,23.10
2023-01-10T21:14:20.395Z,22.80
2023-01-10T21:16:48.525Z,22.70
2023-01-10T21:19:17.088Z,22.90
2023-01-10T21:21:45.636Z,23.20
2023-01-10T21:24:14.755Z,23.50
2023-01-10T21:26:43.065Z,23.40
2023-01-10T21:29:13.082Z,23.10
2023-01-10T21:31:41.684Z,22.80
2023-01-10T21:34:09.981Z,22.70
2023-01-10T21:36:38.426Z,22.60
2023-01-10T21:39:06.861Z,22.90
2023-01-10T21:41:35.149Z,23.20
2023-01-10T21:44:05.258Z,23.50
2023-01-10T21:46:33.964Z,23.40
2023-01-10T21:49:05.565Z,23.10
2023-01-10T21:51:34.018Z,22.80
2023-01-10T21:54:02.391Z,22.70
2023-01-10T21:56:30.815Z,22.80
2023-01-10T21:58:59.123Z,23.10
2023-01-10T22:01:27.412Z,23.40
2023-01-10T22:03:56.044Z,23.50
2023-01-10T22:06:24.384Z,23.20
2023-01-10T22:08:52.597Z,22.80
2023-01-10T22:11:20.825Z,22.80
2023-01-10T22:13:50.352Z,23.00
2023-01-10T22:16:18.737Z,23.20
2023-01-10T22:18:47.081Z,23.40
2023-01-10T22:21:15.306Z,23.50
2023-01-10T22:23:43.953Z,23.40
2023-01-10T22:26:12.997Z,23.00
2023-01-10T22:28:41.336Z,22.80
2023-01-10T22:31:09.847Z,23.00
2023-01-10T22:33:39.080Z,23.20
2023-01-10T22:36:13.339Z,23.50
2023-01-10T22:38:43.028Z,23.50
2023-01-10T22:41:19.739Z,23.20
2023-01-10T22:43:49.549Z,22.80
2023-01-10T22:46:17.763Z,22.90
2023-01-10T22:48:46.701Z,23.20
2023-01-10T22:51:16.743Z,23.40
2023-01-10T22:53:53.341Z,23.60
2023-01-10T22:56:22.312Z,23.20
2023-01-10T22:58:52.444Z,22.90
2023-01-10T23:01:22.187Z,22.70
2023-01-10T23:03:51.045Z,23.00
2023-01-10T23:06:19.144Z,23.30
2023-01-10T23:08:47.883Z,23.50
2023-01-10T23:11:18.023Z,23.40
2023-01-10T23:13:47.682Z,23.10
2023-01-10T23:16:19.097Z,22.80
2023-01-10T23:18:51.419Z,23.00
2023-01-10T23:21:19.652Z,23.20
2023-01-10T23:23:47.752Z,23.50
2023-01-10T23:26:16.236Z,23.40
2023-01-10T23:28:49.717Z,23.10
2023-01-10T23:31:23.072Z,22.80
2023-01-10T23:33:52.861Z,22.90
2023-01-10T23:36:21.226Z,23.20
2023-01-10T23:38:49.432Z,23.40
2023-01-10T23:41:18.044Z,23.50
2023-01-10T23:43:46.213Z,23.10
2023-01-10T23:46:14.656Z,22.80
2023-01-10T23:48:43.028Z,22.80
2023-01-10T23:51:11.443Z,23.10
2023-01-10T23:53:40.597Z,23.30
2023-01-10T23:56:13.985Z,23.50
2023-01-10T23:58:42.610Z,23.50
